Time;durP1;ratioP1;P1;durP2;ratioP2;P2;SDS_P1;SDS_P2;PMS_P1;PMS_P2;Temp;Humidity;BMP_temperature;BMP_pressure;BME280_temperature;BME280_humidity;BME280_pressure;Samples;Min_cycle;Max_cycle;Signal;HPM_P1;HPM_P2
2022/10/19 00:00:17;;;;;;;;;;;;;;;8.74;100.00;102847.66;5040513;28;19982;-42
2022/10/19 00:02:42;;;;;;;;;;;;;;;8.70;100.00;102843.47;5038295;28;20004;-42
2022/10/19 00:05:07;;;;;;;;;;;;;;;8.67;100.00;102832.16;5041155;28;19931;-44
2022/10/19 00:07:32;;;;;;;;;;;;;;;8.64;100.00;102830.56;5040626;28;19947;-43
2022/10/19 00:09:58;;;;;;;;;;;;;;;8.62;100.00;102831.63;5040212;28;19924;-42
2022/10/19 00:12:23;;;;;;;;;;;;;;;8.57;100.00;102830.13;5021546;28;19929;-43
2022/10/19 00:14:48;;;;;;;;;;;;;;;8.54;100.00;102824.13;5039677;28;20327;-44
2022/10/19 00:17:13;;;;;;;;;;;;;;;8.49;100.00;102835.06;5038567;28;20434;-45
2022/10/19 00:19:39;;;;;;;;;;;;;;;8.44;100.00;102833.66;5028876;28;19920;-43
2022/10/19 00:22:04;;;;;;;;;;;;;;;8.40;100.00;102828.50;5031868;28;19921;-42
2022/10/19 00:24:29;;;;;;;;;;;;;;;8.38;100.00;102825.09;5029666;28;19979;-43
2022/10/19 00:26:54;;;;;;;;;;;;;;;8.37;100.00;102830.50;5039388;28;20388;-41
2022/10/19 00:29:19;;;;;;;;;;;;;;;8.26;100.00;102825.84;5040857;28;19916;-42
2022/10/19 00:31:45;;;;;;;;;;;;;;;8.20;100.00;102826.25;5038874;28;20426;-45
2022/10/19 00:34:10;;;;;;;;;;;;;;;8.16;100.00;102830.91;5039255;28;19916;-43
2022/10/19 00:36:37;;;;;;;;;;;;;;;8.14;100.00;102822.16;5040031;28;19917;-44
2022/10/19 00:39:03;;;;;;;;;;;;;;;8.14;100.00;102819.50;5039640;28;19917;-43
2022/10/19 00:41:30;;;;;;;;;;;;;;;8.12;100.00;102809.91;5039655;28;19916;-43
2022/10/19 00:44:05;;;;;;;;;;;;;;;8.11;100.00;102808.19;5015259;28;19919;-42
2022/10/19 00:46:31;;;;;;;;;;;;;;;8.09;100.00;102813.59;5029182;28;20436;-42
2022/10/19 00:49:01;;;;;;;;;;;;;;;8.10;100.00;102820.66;5039900;28;19927;-42
2022/10/19 00:51:27;;;;;;;;;;;;;;;8.13;100.00;102819.59;5038609;28;19920;-43
2022/10/19 00:53:52;;;;;;;;;;;;;;;8.11;100.00;102814.38;5027628;28;19932;-43
2022/10/19 00:56:18;;;;;;;;;;;;;;;8.09;100.00;102823.41;5014011;28;20463;-43
2022/10/19 00:58:43;;;;;;;;;;;;;;;8.09;100.00;102815.41;5028509;28;19912;-41
2022/10/19 01:01:10;;;;;;;;;;;;;;;8.11;100.00;102816.16;5038545;28;20492;-41
2022/10/19 01:03:35;;;;;;;;;;;;;;;8.14;100.00;102815.97;5039975;28;19913;-44
2022/10/19 01:06:00;;;;;;;;;;;;;;;8.19;100.00;102814.72;5038170;28;20008;-43
2022/10/19 01:08:26;;;;;;;;;;;;;;;8.22;100.00;102821.69;5038975;28;20125;-43
2022/10/19 01:11:00;;;;;;;;;;;;;;;8.21;100.00;102823.50;5021047;28;20374;-44
2022/10/19 01:13:35;;;;;;;;;;;;;;;8.25;100.00;102817.97;5029845;28;19939;-44
2022/10/19 01:16:03;;;;;;;;;;;;;;;8.26;100.00;102819.69;5035236;28;20415;-45
2022/10/19 01:18:28;;;;;;;;;;;;;;;8.30;100.00;102821.19;5039277;28;19923;-42
2022/10/19 01:20:54;;;;;;;;;;;;;;;8.30;100.00;102811.41;5019181;28;20355;-45
2022/10/19 01:23:30;;;;;;;;;;;;;;;8.30;100.00;102814.06;5039677;28;20019;-44
2022/10/19 01:26:07;;;;;;;;;;;;;;;8.31;100.00;102812.25;5038457;28;19983;-44
2022/10/19 01:28:51;;;;;;;;;;;;;;;8.32;100.00;102806.00;5032645;28;19921;-43
2022/10/19 01:31:25;;;;;;;;;;;;;;;8.32;100.00;102813.97;5014635;28;20371;-45
2022/10/19 01:33:57;;;;;;;;;;;;;;;8.32;100.00;102803.31;5038893;28;20071;-44
2022/10/19 01:36:42;;;;;;;;;;;;;;;8.34;100.00;102804.91;5019206;28;20251;-45
2022/10/19 01:39:16;;;;;;;;;;;;;;;8.35;100.00;102813.75;5021238;28;19960;-45
2022/10/19 01:41:49;;;;;;;;;;;;;;;8.35;100.00;102814.63;5038890;28;20070;-43
2022/10/19 01:44:33;;;;;;;;;;;;;;;8.37;100.00;102809.22;5038976;28;20418;-43
2022/10/19 01:47:02;;;;;;;;;;;;;;;8.36;100.00;102813.66;5034612;28;19955;-46
2022/10/19 01:49:31;;;;;;;;;;;;;;;8.38;100.00;102810.91;5033659;28;20705;-43
2022/10/19 01:51:58;;;;;;;;;;;;;;;8.37;100.00;102812.72;5038254;28;19920;-43
2022/10/19 01:54:25;;;;;;;;;;;;;;;8.34;100.00;102804.91;5038667;28;20182;-41
2022/10/19 01:56:51;;;;;;;;;;;;;;;8.34;100.00;102810.25;5033409;28;19943;-40
2022/10/19 01:59:18;;;;;;;;;;;;;;;8.36;100.00;102802.16;5028415;28;19913;-41
2022/10/19 02:01:45;;;;;;;;;;;;;;;8.33;100.00;102805.91;5034167;28;19921;-41
2022/10/19 02:04:12;;;;;;;;;;;;;;;8.31;100.00;102802.44;5034076;28;20252;-41
2022/10/19 02:06:37;;;;;;;;;;;;;;;8.27;100.00;102792.13;5029452;28;20128;-41
2022/10/19 02:09:03;;;;;;;;;;;;;;;8.25;100.00;102786.88;5038295;28;19929;-43
2022/10/19 02:11:28;;;;;;;;;;;;;;;8.27;100.00;102786.78;5038483;28;19916;-42
2022/10/19 02:13:58;;;;;;;;;;;;;;;8.26;100.00;102788.56;5037857;28;19929;-43
2022/10/19 02:16:29;;;;;;;;;;;;;;;8.25;100.00;102786.00;5036862;28;19979;-42
2022/10/19 02:18:55;;;;;;;;;;;;;;;8.25;100.00;102784.22;5038392;28;19978;-45
2022/10/19 02:21:21;;;;;;;;;;;;;;;8.22;100.00;102769.28;5030353;28;19917;-44
2022/10/19 02:23:46;;;;;;;;;;;;;;;8.20;100.00;102771.19;5031721;28;19940;-42
2022/10/19 02:26:11;;;;;;;;;;;;;;;8.15;100.00;102770.63;5034307;28;20319;-42
2022/10/19 02:28:37;;;;;;;;;;;;;;;8.12;100.00;102760.19;5038409;28;20019;-42
2022/10/19 02:31:02;;;;;;;;;;;;;;;8.11;100.00;102758.50;5025690;28;20555;-41
2022/10/19 02:33:28;;;;;;;;;;;;;;;8.12;100.00;102754.03;5038084;28;19921;-42
2022/10/19 02:35:53;;;;;;;;;;;;;;;8.08;100.00;102750.69;5034988;28;20015;-42
2022/10/19 02:38:20;;;;;;;;;;;;;;;8.04;100.00;102749.16;5019588;28;19917;-41
2022/10/19 02:40:50;;;;;;;;;;;;;;;8.03;100.00;102747.47;5036943;28;20118;-42
2022/10/19 02:43:18;;;;;;;;;;;;;;;7.99;100.00;102743.28;5038233;28;20355;-43
2022/10/19 02:45:50;;;;;;;;;;;;;;;7.95;100.00;102750.63;5036672;28;20003;-44
2022/10/19 02:48:20;;;;;;;;;;;;;;;7.89;100.00;102747.47;5025038;28;20398;-46
2022/10/19 02:50:46;;;;;;;;;;;;;;;7.81;100.00;102746.16;5029302;28;20095;-42
2022/10/19 02:53:12;;;;;;;;;;;;;;;7.78;100.00;102745.50;5019193;28;20228;-40
2022/10/19 02:55:37;;;;;;;;;;;;;;;7.75;100.00;102743.88;5037882;28;19917;-41
2022/10/19 02:58:02;;;;;;;;;;;;;;;7.71;100.00;102744.19;5038039;28;19919;-44
2022/10/19 03:00:28;;;;;;;;;;;;;;;7.69;100.00;102754.03;5037106;28;19916;-44
2022/10/19 03:02:53;;;;;;;;;;;;;;;7.70;100.00;102750.44;5034773;28;20395;-41
2022/10/19 03:05:18;;;;;;;;;;;;;;;7.67;100.00;102756.78;5032694;28;19924;-44
2022/10/19 03:07:43;;;;;;;;;;;;;;;7.65;100.00;102756.91;5037773;28;19982;-43
2022/10/19 03:10:08;;;;;;;;;;;;;;;7.61;100.00;102757.19;5036247;28;20377;-42
2022/10/19 03:12:34;;;;;;;;;;;;;;;7.59;100.00;102744.00;5037342;28;20064;-44
2022/10/19 03:14:59;;;;;;;;;;;;;;;7.59;100.00;102745.81;5036936;28;20287;-44
2022/10/19 03:17:24;;;;;;;;;;;;;;;7.59;100.00;102751.13;5036838;28;19992;-46
2022/10/19 03:19:50;;;;;;;;;;;;;;;7.59;100.00;102751.13;5035167;28;20294;-43
2022/10/19 03:22:15;;;;;;;;;;;;;;;7.60;100.00;102750.16;5037193;28;19996;-44
2022/10/19 03:24:40;;;;;;;;;;;;;;;7.61;100.00;102741.25;5036286;28;19923;-44
2022/10/19 03:27:05;;;;;;;;;;;;;;;7.62;100.00;102737.59;5019924;28;20504;-42
2022/10/19 03:29:30;;;;;;;;;;;;;;;7.63;100.00;102739.31;5028753;28;20340;-44
2022/10/19 03:31:56;;;;;;;;;;;;;;;7.62;100.00;102730.50;5035546;28;19944;-42
2022/10/19 03:34:21;;;;;;;;;;;;;;;7.62;100.00;102742.94;5030244;28;19939;-45
2022/10/19 03:36:46;;;;;;;;;;;;;;;7.60;100.00;102739.50;5036719;28;19912;-41
2022/10/19 03:39:12;;;;;;;;;;;;;;;7.57;100.00;102745.91;5034788;28;19980;-41
2022/10/19 03:41:38;;;;;;;;;;;;;;;7.56;100.00;102743.31;5037578;28;19967;-45
2022/10/19 03:44:04;;;;;;;;;;;;;;;7.52;100.00;102742.66;5033508;28;20415;-42
2022/10/19 03:46:29;;;;;;;;;;;;;;;7.50;100.00;102736.56;5035966;28;20287;-44
2022/10/19 03:48:54;;;;;;;;;;;;;;;7.48;100.00;102743.78;5037342;28;19913;-43
2022/10/19 03:51:24;;;;;;;;;;;;;;;7.47;100.00;102742.94;5035569;28;20364;-43
2022/10/19 03:53:54;;;;;;;;;;;;;;;7.47;100.00;102742.09;5036402;28;20419;-45
2022/10/19 03:56:20;;;;;;;;;;;;;;;7.46;100.00;102751.84;5036696;28;20007;-42
2022/10/19 03:58:47;;;;;;;;;;;;;;;7.48;100.00;102749.09;5036894;28;20368;-42
2022/10/19 04:01:16;;;;;;;;;;;;;;;7.45;100.00;102747.50;5035407;28;19956;-43
2022/10/19 04:03:41;;;;;;;;;;;;;;;7.43;100.00;102751.19;5037212;28;20304;-45
2022/10/19 04:06:07;;;;;;;;;;;;;;;7.40;100.00;102748.72;5035684;28;19913;-44
2022/10/19 04:08:33;;;;;;;;;;;;;;;7.37;100.00;102751.56;5017893;28;20023;-43
2022/10/19 04:10:59;;;;;;;;;;;;;;;7.33;100.00;102764.19;5031078;28;20471;-43
2022/10/19 04:13:25;;;;;;;;;;;;;;;7.31;100.00;102760.75;5035664;28;19998;-45
2022/10/19 04:15:50;;;;;;;;;;;;;;;7.28;100.00;102756.50;5035112;28;19943;-44
2022/10/19 04:18:15;;;;;;;;;;;;;;;7.25;100.00;102751.34;5033673;28;20316;-43
2022/10/19 04:20:41;;;;;;;;;;;;;;;7.23;100.00;102747.94;5031383;28;19913;-43
2022/10/19 04:23:06;;;;;;;;;;;;;;;7.19;100.00;102746.41;5034591;28;19948;-42
2022/10/19 04:25:32;;;;;;;;;;;;;;;7.20;100.00;102753.44;5032592;28;19980;-45
2022/10/19 04:27:57;;;;;;;;;;;;;;;7.19;100.00;102746.41;5030590;28;19990;-43
2022/10/19 04:30:22;;;;;;;;;;;;;;;7.23;100.00;102736.44;5028862;28;20192;-43
2022/10/19 04:32:47;;;;;;;;;;;;;;;7.25;100.00;102734.56;5039609;28;19939;-42
2022/10/19 04:35:12;;;;;;;;;;;;;;;7.26;100.00;102730.94;5037982;28;19917;-42
2022/10/19 04:37:37;;;;;;;;;;;;;;;7.27;100.00;102740.63;5040494;28;19936;-42
2022/10/19 04:40:04;;;;;;;;;;;;;;;7.26;100.00;102744.22;5039284;28;19913;-43
2022/10/19 04:42:30;;;;;;;;;;;;;;;7.25;100.00;102746.03;5040235;28;19935;-43
2022/10/19 04:44:55;;;;;;;;;;;;;;;7.21;100.00;102739.22;5039247;28;19912;-42
2022/10/19 04:47:20;;;;;;;;;;;;;;;7.18;100.00;102735.88;5039272;28;19966;-43
2022/10/19 04:49:46;;;;;;;;;;;;;;;7.15;100.00;102731.59;5037543;28;19920;-44
2022/10/19 04:52:11;;;;;;;;;;;;;;;7.11;100.00;102732.72;5024763;28;19968;-43
2022/10/19 04:54:36;;;;;;;;;;;;;;;7.12;100.00;102729.13;5020551;28;20348;-44
2022/10/19 04:57:01;;;;;;;;;;;;;;;7.12;100.00;102734.44;5032913;28;20198;-42
2022/10/19 04:59:27;;;;;;;;;;;;;;;7.12;100.00;102736.25;5039473;28;19920;-43
2022/10/19 05:01:52;;;;;;;;;;;;;;;7.10;100.00;102734.53;5038119;28;20383;-42
2022/10/19 05:04:17;;;;;;;;;;;;;;;7.09;100.00;102740.81;5032069;28;19921;-44
2022/10/19 05:06:42;;;;;;;;;;;;;;;7.08;100.00;102741.75;5039019;28;19924;-41
2022/10/19 05:09:08;;;;;;;;;;;;;;;7.06;100.00;102727.69;5039491;28;19991;-43
2022/10/19 05:11:33;;;;;;;;;;;;;;;7.04;100.00;102742.88;5038890;28;20007;-41
2022/10/19 05:13:58;;;;;;;;;;;;;;;7.02;100.00;102739.44;5038840;28;19943;-46
2022/10/19 05:16:23;;;;;;;;;;;;;;;7.00;100.00;102738.69;5038591;28;20079;-44
2022/10/19 05:18:49;;;;;;;;;;;;;;;6.98;100.00;102735.25;5039310;28;20386;-43
2022/10/19 05:21:15;;;;;;;;;;;;;;;6.96;100.00;102729.19;5037740;28;19920;-43
2022/10/19 05:23:41;;;;;;;;;;;;;;;6.94;100.00;102730.22;5039378;28;19968;-43
2022/10/19 05:26:08;;;;;;;;;;;;;;;6.90;100.00;102726.88;5030729;28;19982;-42
2022/10/19 05:28:34;;;;;;;;;;;;;;;6.88;100.00;102715.50;5035506;28;20069;-43
2022/10/19 05:31:06;;;;;;;;;;;;;;;6.83;100.00;102715.78;5037135;28;19929;-44
2022/10/19 05:33:32;;;;;;;;;;;;;;;6.83;100.00;102710.47;5038791;28;19920;-42
2022/10/19 05:35:57;;;;;;;;;;;;;;;6.81;100.00;102709.69;5036446;28;19920;-45
2022/10/19 05:38:22;;;;;;;;;;;;;;;6.83;100.00;102714.94;5038974;28;19913;-43
2022/10/19 05:40:47;;;;;;;;;;;;;;;6.83;100.00;102714.94;5038468;28;19913;-44
2022/10/19 05:43:12;;;;;;;;;;;;;;;6.80;100.00;102702.66;5037968;28;19986;-42
2022/10/19 05:45:38;;;;;;;;;;;;;;;6.80;100.00;102709.78;5037230;28;20268;-42
2022/10/19 05:48:03;;;;;;;;;;;;;;;6.81;100.00;102703.53;5038624;28;19967;-44
2022/10/19 05:50:28;;;;;;;;;;;;;;;6.82;100.00;102710.53;5035916;28;19921;-41
2022/10/19 05:52:53;;;;;;;;;;;;;;;6.82;100.00;102700.81;5020419;28;20536;-42
2022/10/19 05:55:19;;;;;;;;;;;;;;;6.85;100.00;102707.72;5038136;28;19940;-42
2022/10/19 05:57:44;;;;;;;;;;;;;;;6.85;100.00;102699.75;5038476;28;20351;-42
2022/10/19 06:00:09;;;;;;;;;;;;;;;6.85;100.00;102703.25;5035241;28;19947;-44
2022/10/19 06:02:35;;;;;;;;;;;;;;;6.86;100.00;102704.13;5037642;28;19921;-43
2022/10/19 06:05:00;;;;;;;;;;;;;;;6.86;100.00;102706.78;5036485;28;19942;-44
2022/10/19 06:07:25;;;;;;;;;;;;;;;6.87;100.00;102714.66;5038546;28;20434;-43
2022/10/19 06:09:50;;;;;;;;;;;;;;;6.88;100.00;102713.69;5034551;28;19946;-44
2022/10/19 06:12:17;;;;;;;;;;;;;;;6.88;100.00;102712.84;5029785;28;19944;-44
2022/10/19 06:14:42;;;;;;;;;;;;;;;6.88;100.00;102710.19;5034913;28;20065;-44
2022/10/19 06:17:08;;;;;;;;;;;;;;;6.86;100.00;102710.28;5034899;28;19999;-41
2022/10/19 06:19:33;;;;;;;;;;;;;;;6.85;100.00;102702.41;5036986;28;20031;-42
2022/10/19 06:21:58;;;;;;;;;;;;;;;6.88;100.00;102697.75;5036687;28;19920;-42
2022/10/19 06:24:23;;;;;;;;;;;;;;;6.90;100.00;102700.34;5045955;28;19981;-45
2022/10/19 06:26:48;;;;;;;;;;;;;;;6.91;100.00;102696.75;5031943;28;19913;-44
2022/10/19 06:29:14;;;;;;;;;;;;;;;6.89;100.00;102694.16;5037374;28;19958;-43
2022/10/19 06:31:39;;;;;;;;;;;;;;;6.89;100.00;102691.50;5023860;28;19917;-43
2022/10/19 06:34:04;;;;;;;;;;;;;;;6.93;100.00;102696.66;5018701;28;19925;-43
2022/10/19 06:36:30;;;;;;;;;;;;;;;6.90;100.00;102695.88;5018557;28;19917;-42
2022/10/19 06:38:56;;;;;;;;;;;;;;;6.91;100.00;102702.06;5037640;28;19920;-41
2022/10/19 06:41:21;;;;;;;;;;;;;;;6.92;100.00;102698.44;5037497;28;20002;-43
2022/10/19 06:43:50;;;;;;;;;;;;;;;6.95;100.00;102703.56;5021014;28;19913;-43
2022/10/19 06:46:19;;;;;;;;;;;;;;;6.98;100.00;102706.03;5033514;28;19923;-43
2022/10/19 06:48:48;;;;;;;;;;;;;;;7.00;100.00;102709.47;5035234;28;20425;-44
2022/10/19 06:51:13;;;;;;;;;;;;;;;7.02;100.00;102715.53;5031527;28;20336;-44
2022/10/19 06:53:38;;;;;;;;;;;;;;;7.04;100.00;102716.31;5036506;28;19917;-44
2022/10/19 06:56:04;;;;;;;;;;;;;;;7.08;100.00;102716.97;5037255;28;20107;-43
2022/10/19 06:58:33;;;;;;;;;;;;;;;7.12;100.00;102715.84;5037186;28;20590;-44
2022/10/19 07:00:58;;;;;;;;;;;;;;;7.16;100.00;102712.06;5035920;28;19984;-42
2022/10/19 07:03:24;;;;;;;;;;;;;;;7.21;100.00;102720.63;5037339;28;19928;-42
2022/10/19 07:05:53;;;;;;;;;;;;;;;7.24;100.00;102714.25;5032866;28;19924;-42
2022/10/19 07:08:18;;;;;;;;;;;;;;;7.28;100.00;102711.31;5035444;28;20103;-45
2022/10/19 07:10:48;;;;;;;;;;;;;;;7.33;100.00;102710.16;5032719;28;19935;-43
2022/10/19 07:13:13;;;;;;;;;;;;;;;7.39;100.00;102713.31;5031702;28;19932;-46
2022/10/19 07:15:38;;;;;;;;;;;;;;;7.45;100.00;102704.09;5010058;28;19916;-41
2022/10/19 07:18:03;;;;;;;;;;;;;;;7.49;100.00;102710.94;5028788;28;20219;-46
2022/10/19 07:20:28;;;;;;;;;;;;;;;7.54;100.00;102708.84;5032764;28;20065;-44
2022/10/19 07:22:54;;;;;;;;;;;;;;;7.61;100.00;102712.00;5032472;28;20039;-43
2022/10/19 07:25:19;;;;;;;;;;;;;;;7.67;100.00;102716.91;5033936;28;19916;-43
2022/10/19 07:27:44;;;;;;;;;;;;;;;7.72;100.00;102714.84;5017860;28;20422;-43
2022/10/19 07:30:09;;;;;;;;;;;;;;;7.79;100.00;102716.16;5036480;28;19932;-44
2022/10/19 07:32:34;;;;;;;;;;;;;;;7.84;100.00;102711.41;5036319;28;19920;-42
2022/10/19 07:35:00;;;;;;;;;;;;;;;7.90;100.00;102719.94;5035409;28;20220;-42
2022/10/19 07:37:25;;;;;;;;;;;;;;;7.92;100.00;102710.06;5019353;28;20010;-43
2022/10/19 07:39:50;;;;;;;;;;;;;;;7.97;100.00;102715.94;5035662;28;19920;-41
2022/10/19 07:42:15;;;;;;;;;;;;;;;8.00;100.00;102718.41;5029832;28;20356;-42
2022/10/19 07:44:40;;;;;;;;;;;;;;;8.05;100.00;102726.09;5031974;28;19913;-47
2022/10/19 07:47:06;;;;;;;;;;;;;;;8.09;100.00;102727.59;5035875;28;19917;-42
2022/10/19 07:49:31;;;;;;;;;;;;;;;8.14;100.00;102714.84;5024623;28;20610;-43
2022/10/19 07:51:56;;;;;;;;;;;;;;;8.20;100.00;102715.31;5033343;28;20069;-43
2022/10/19 07:54:23;;;;;;;;;;;;;;;8.27;100.00;102710.44;5028653;28;20307;-42
2022/10/19 07:56:48;;;;;;;;;;;;;;;8.33;100.00;102704.72;5035596;28;20059;-43
2022/10/19 07:59:15;;;;;;;;;;;;;;;8.37;100.00;102705.38;5040137;28;20019;-41
2022/10/19 08:01:41;;;;;;;;;;;;;;;8.44;100.00;102698.72;5039779;28;20486;-44
2022/10/19 08:04:07;;;;;;;;;;;;;;;8.49;100.00;102696.59;5040446;28;19923;-43
2022/10/19 08:06:32;;;;;;;;;;;;;;;8.55;100.00;102700.66;5040006;28;20008;-41
2022/10/19 08:08:57;;;;;;;;;;;;;;;8.62;100.00;102699.28;5039497;28;20294;-43
2022/10/19 08:11:24;;;;;;;;;;;;;;;8.68;100.00;102703.38;5039441;28;19928;-44
2022/10/19 08:13:50;;;;;;;;;;;;;;;8.74;100.00;102689.63;5028387;28;19928;-44
2022/10/19 08:16:21;;;;;;;;;;;;;;;8.81;100.00;102687.38;5039932;28;20559;-44
2022/10/19 08:18:46;;;;;;;;;;;;;;;8.87;100.00;102687.84;5040399;28;20059;-44
2022/10/19 08:21:11;;;;;;;;;;;;;;;8.93;100.00;102683.91;5038258;28;20008;-43
2022/10/19 08:23:36;;;;;;;;;;;;;;;9.01;100.00;102694.03;5038886;28;19925;-45
2022/10/19 08:26:02;;;;;;;;;;;;;;;9.09;100.00;102697.88;5038799;28;20303;-43
2022/10/19 08:28:27;;;;;;;;;;;;;;;9.17;100.00;102699.19;5039228;28;19944;-40
2022/10/19 08:30:56;;;;;;;;;;;;;;;9.25;100.00;102697.69;5038306;28;20423;-45
2022/10/19 08:33:22;;;;;;;;;;;;;;;9.33;100.00;102691.78;5027797;28;19960;-41
2022/10/19 08:35:47;;;;;;;;;;;;;;;9.42;100.00;102687.63;5038926;28;20361;-42
2022/10/19 08:38:12;;;;;;;;;;;;;;;9.52;100.00;102672.69;5039470;28;19908;-44
2022/10/19 08:40:37;;;;;;;;;;;;;;;9.59;100.00;102679.31;5039682;28;20542;-42
2022/10/19 08:43:11;;;;;;;;;;;;;;;9.65;100.00;102662.84;5037262;28;19966;-44
2022/10/19 08:45:39;;;;;;;;;;;;;;;9.73;100.00;102656.13;5039026;28;19923;-41
2022/10/19 08:48:22;;;;;;;;;;;;;;;9.82;100.00;102652.78;5040029;28;19995;-40
2022/10/19 08:50:48;;;;;;;;;;;;;;;9.89;100.00;102649.56;5038025;28;19917;-42
2022/10/19 08:53:36;;;;;;;;;;;;;;;10.00;100.00;102651.44;5034688;28;19921;-41
2022/10/19 08:56:04;;;;;;;;;;;;;;;10.09;100.00;102644.56;5039512;28;19917;-42
2022/10/19 08:58:49;;;;;;;;;;;;;;;10.19;100.00;102645.56;5039317;28;19913;-41
2022/10/19 09:01:32;;;;;;;;;;;;;;;10.27;100.00;102645.88;5005903;28;19967;-43
2022/10/19 09:03:57;;;;;;;;;;;;;;;10.35;100.00;102650.69;5035721;28;19915;-43
2022/10/19 09:06:43;;;;;;;;;;;;;;;10.44;100.00;102647.31;5038517;28;19917;-40
2022/10/19 09:09:11;;;;;;;;;;;;;;;10.56;100.00;102652.69;5020541;28;19952;-42
2022/10/19 09:11:38;;;;;;;;;;;;;;;10.66;100.00;102642.13;5039870;28;20003;-45
2022/10/19 09:14:17;;;;;;;;;;;;;;;10.75;100.00;102639.59;5034115;28;20339;-43
2022/10/19 09:16:42;;;;;;;;;;;;;;;10.86;100.00;102637.94;5032934;28;19917;-45
2022/10/19 09:19:24;;;;;;;;;;;;;;;10.94;100.00;102636.34;5034589;28;19942;-43
2022/10/19 09:21:54;;;;;;;;;;;;;;;11.08;100.00;102639.78;5034891;28;19912;-42
2022/10/19 09:24:33;;;;;;;;;;;;;;;11.17;100.00;102639.06;5038252;28;19912;-44
2022/10/19 09:26:59;;;;;;;;;;;;;;;11.27;100.00;102645.41;5039606;28;20452;-45
2022/10/19 09:29:27;;;;;;;;;;;;;;;11.43;100.00;102641.50;5038482;28;20107;-45
2022/10/19 09:31:54;;;;;;;;;;;;;;;11.57;100.00;102647.47;5037995;28;20126;-43
2022/10/19 09:34:25;;;;;;;;;;;;;;;11.71;100.00;102642.78;5038523;28;20470;-43
2022/10/19 09:36:56;;;;;;;;;;;;;;;11.84;100.00;102643.50;5038681;28;20298;-43
2022/10/19 09:39:22;;;;;;;;;;;;;;;11.92;100.00;102638.41;5038430;28;19977;-44
2022/10/19 09:41:52;;;;;;;;;;;;;;;11.95;100.00;102640.00;5039096;28;19916;-43
2022/10/19 09:44:18;;;;;;;;;;;;;;;12.05;100.00;102634.69;5037183;28;20026;-42
2022/10/19 09:46:50;;;;;;;;;;;;;;;12.19;100.00;102645.13;5029632;28;19932;-45
2022/10/19 09:49:16;;;;;;;;;;;;;;;12.30;100.00;102634.41;5037803;28;19972;-45
2022/10/19 09:51:51;;;;;;;;;;;;;;;12.42;100.00;102642.34;5035432;28;19948;-44
2022/10/19 09:54:24;;;;;;;;;;;;;;;12.55;100.00;102643.03;5029474;28;20402;-44
2022/10/19 09:56:53;;;;;;;;;;;;;;;12.61;100.00;102631.78;5027364;28;20005;-44
2022/10/19 09:59:23;;;;;;;;;;;;;;;12.65;100.00;102621.66;5038592;28;20432;-42
2022/10/19 10:02:07;;;;;;;;;;;;;;;12.71;100.00;102626.47;5033479;28;19913;-43
2022/10/19 10:04:35;;;;;;;;;;;;;;;12.84;100.00;102637.00;5025878;28;20275;-41
2022/10/19 10:07:00;;;;;;;;;;;;;;;12.85;100.00;102626.16;5035628;28;19925;-46
2022/10/19 10:09:27;;;;;;;;;;;;;;;12.88;100.00;102619.66;5038509;28;20364;-43
2022/10/19 10:11:53;;;;;;;;;;;;;;;12.92;100.00;102610.38;5037956;28;19982;-44
2022/10/19 10:14:22;;;;;;;;;;;;;;;13.00;100.00;102602.53;5016871;28;20274;-41
2022/10/19 10:16:47;;;;;;;;;;;;;;;13.17;100.00;102592.13;5038035;28;20571;-42
2022/10/19 10:19:14;;;;;;;;;;;;;;;13.35;100.00;102598.59;5036223;28;20164;-42
2022/10/19 10:21:47;;;;;;;;;;;;;;;13.55;100.00;102586.06;5038160;28;19924;-44
2022/10/19 10:24:13;;;;;;;;;;;;;;;13.76;100.00;102594.03;5036421;28;19913;-44
2022/10/19 10:26:39;;;;;;;;;;;;;;;14.01;100.00;102605.22;5039342;28;19939;-43
2022/10/19 10:29:15;;;;;;;;;;;;;;;14.16;100.00;102613.72;5037433;28;19921;-43
2022/10/19 10:31:41;;;;;;;;;;;;;;;14.30;100.00;102607.06;5031245;28;19917;-42
2022/10/19 10:34:12;;;;;;;;;;;;;;;14.33;99.58;102601.41;5020033;28;20338;-43
2022/10/19 10:36:37;;;;;;;;;;;;;;;14.35;100.00;102597.56;5037872;28;19928;-42
2022/10/19 10:39:07;;;;;;;;;;;;;;;14.40;99.07;102593.63;5037494;28;19913;-43
2022/10/19 10:41:39;;;;;;;;;;;;;;;14.45;100.00;102592.19;5019038;28;19912;-46
2022/10/19 10:44:15;;;;;;;;;;;;;;;14.54;99.34;102596.72;5031162;28;20011;-44
2022/10/19 10:46:45;;;;;;;;;;;;;;;14.60;100.00;102586.41;5033821;28;19974;-42
2022/10/19 10:49:17;;;;;;;;;;;;;;;14.64;100.00;102598.56;5032280;28;19912;-42
2022/10/19 10:51:44;;;;;;;;;;;;;;;14.60;97.13;102581.03;5033294;28;19964;-43
2022/10/19 10:54:19;;;;;;;;;;;;;;;14.60;96.03;102584.56;5016481;28;19956;-44
2022/10/19 10:57:03;;;;;;;;;;;;;;;14.61;96.29;102580.84;5035166;28;20170;-42
2022/10/19 10:59:31;;;;;;;;;;;;;;;14.68;94.71;102579.31;5031113;28;20412;-43
2022/10/19 11:01:59;;;;;;;;;;;;;;;14.80;94.80;102571.91;5028490;28;19960;-46
2022/10/19 11:04:27;;;;;;;;;;;;;;;14.95;94.15;102564.19;5034776;28;19924;-44
2022/10/19 11:06:54;;;;;;;;;;;;;;;14.97;89.53;102562.22;5037488;28;20062;-43
2022/10/19 11:09:37;;;;;;;;;;;;;;;15.01;91.82;102552.84;5033400;28;19921;-44
2022/10/19 11:12:03;;;;;;;;;;;;;;;15.05;93.49;102548.00;5023633;28;19938;-43
2022/10/19 11:14:44;;;;;;;;;;;;;;;15.13;91.35;102553.50;5036971;28;19973;-41
2022/10/19 11:17:21;;;;;;;;;;;;;;;15.32;90.36;102554.41;5038346;28;19952;-44
2022/10/19 11:19:50;;;;;;;;;;;;;;;15.56;87.48;102548.44;5036404;28;20173;-43
2022/10/19 11:22:27;;;;;;;;;;;;;;;15.75;86.25;102544.75;5034994;28;19920;-42
2022/10/19 11:24:58;;;;;;;;;;;;;;;15.79;85.09;102538.09;5023667;28;20425;-42
2022/10/19 11:27:46;;;;;;;;;;;;;;;15.81;83.01;102525.31;5016293;28;20225;-47
2022/10/19 11:30:21;;;;;;;;;;;;;;;15.89;80.14;102533.47;5024446;28;20355;-44
2022/10/19 11:32:46;;;;;;;;;;;;;;;15.99;79.71;102528.84;5041817;28;20015;-43
2022/10/19 11:35:20;;;;;;;;;;;;;;;16.05;77.83;102524.66;5037373;28;20527;-42
2022/10/19 11:37:58;;;;;;;;;;;;;;;16.13;77.01;102521.22;5039073;28;19924;-44
2022/10/19 11:40:41;;;;;;;;;;;;;;;16.20;75.75;102523.09;5033503;28;19968;-45
2022/10/19 11:43:12;;;;;;;;;;;;;;;16.31;75.47;102508.53;5041026;28;20358;-43
2022/10/19 11:46:01;;;;;;;;;;;;;;;16.36;77.53;102500.81;5041071;28;20278;-42
2022/10/19 11:48:40;;;;;;;;;;;;;;;16.50;82.16;102485.91;5033086;28;19912;-43
2022/10/19 11:51:06;;;;;;;;;;;;;;;16.72;82.50;102484.50;5033268;28;20391;-42
2022/10/19 11:53:49;;;;;;;;;;;;;;;16.85;76.27;102475.97;5041474;28;19921;-48
2022/10/19 11:56:24;;;;;;;;;;;;;;;16.99;74.74;102473.66;5040557;28;20021;-45
2022/10/19 11:58:57;;;;;;;;;;;;;;;17.15;80.13;102461.03;5040343;28;19913;-42
2022/10/19 12:01:25;;;;;;;;;;;;;;;17.41;78.25;102456.53;5039628;28;19920;-42
2022/10/19 12:04:09;;;;;;;;;;;;;;;17.46;74.14;102451.47;5022852;28;19913;-49
2022/10/19 12:06:40;;;;;;;;;;;;;;;17.68;84.72;102447.25;5026750;28;20303;-44
2022/10/19 12:09:37;;;;;;;;;;;;;;;17.90;78.76;102443.06;5031703;28;20205;-46
2022/10/19 12:12:05;;;;;;;;;;;;;;;18.01;67.48;102437.31;5006327;28;20013;-43
2022/10/19 12:14:33;;;;;;;;;;;;;;;18.19;72.50;102441.66;5039627;28;20330;-46
2022/10/19 12:17:04;;;;;;;;;;;;;;;18.24;72.66;102432.03;5039256;28;19944;-44
2022/10/19 12:19:35;;;;;;;;;;;;;;;18.32;68.81;102427.63;5040292;28;19912;-44
2022/10/19 12:22:02;;;;;;;;;;;;;;;18.50;65.92;102427.38;5040320;28;20073;-46
2022/10/19 12:24:29;;;;;;;;;;;;;;;18.64;70.13;102432.06;5041260;28;20023;-43
2022/10/19 12:26:54;;;;;;;;;;;;;;;18.87;72.08;102426.72;5021596;28;19919;-46
2022/10/19 12:29:22;;;;;;;;;;;;;;;19.13;62.98;102429.13;5039414;28;20342;-44
2022/10/19 12:31:47;;;;;;;;;;;;;;;19.28;64.55;102420.19;5041030;28;19925;-42
2022/10/19 12:34:13;;;;;;;;;;;;;;;19.46;62.91;102403.66;5040312;28;20330;-47
2022/10/19 12:36:41;;;;;;;;;;;;;;;19.67;66.46;102403.81;5040481;28;19920;-45
2022/10/19 12:39:17;;;;;;;;;;;;;;;19.68;60.85;102400.06;5040322;28;20031;-47